Time;durP1;ratioP1;P1;durP2;ratioP2;P2;SDS_P1;SDS_P2;PMS_P1;PMS_P2;Temp;Humidity;BMP_temperature;BMP_pressure;BME280_temperature;BME280_humidity;BME280_pressure;Samples;Min_cycle;Max_cycle;Signal;HPM_P1;HPM_P2
2022/09/23 00:00:35;;;;;;;4.47;2.50;;;;;;;;;;5054525;28;20435;-81
2022/09/23 00:03:01;;;;;;;4.30;2.88;;;;;;;;;;5036022;28;20045;-81
2022/09/23 00:05:28;;;;;;;3.20;2.40;;;;;;;;;;5036247;28;20025;-80
2022/09/23 00:07:54;;;;;;;3.85;2.80;;;;;;;;;;5036103;28;20021;-79
2022/09/23 00:10:20;;;;;;;23.05;3.60;;;;;;;;;;5053962;28;20366;-79
2022/09/23 00:12:45;;;;;;;4.43;2.60;;;;;;;;;;5003578;28;20079;-80
2022/09/23 00:15:11;;;;;;;3.15;2.63;;;;;;;;;;5036215;28;20033;-80
2022/09/23 00:17:37;;;;;;;3.47;2.65;;;;;;;;;;5019683;28;20033;-81
2022/09/23 00:20:03;;;;;;;7.10;2.70;;;;;;;;;;5036475;28;20052;-80
2022/09/23 00:22:28;;;;;;;4.03;2.70;;;;;;;;;;5019233;28;20035;-80
2022/09/23 00:24:54;;;;;;;4.18;3.10;;;;;;;;;;5019094;28;20037;-80
2022/09/23 00:27:22;;;;;;;3.90;2.75;;;;;;;;;;5054081;28;20024;-80
2022/09/23 00:29:47;;;;;;;2.83;2.33;;;;;;;;;;5036355;28;20024;-79
2022/09/23 00:32:13;;;;;;;3.63;2.78;;;;;;;;;;5053855;28;20052;-80
2022/09/23 00:34:38;;;;;;;3.17;2.50;;;;;;;;;;5035772;28;20114;-80
2022/09/23 00:37:04;;;;;;;4.57;2.80;;;;;;;;;;5002620;28;20025;-81
2022/09/23 00:39:30;;;;;;;5.80;2.60;;;;;;;;;;5036138;28;20032;-81
2022/09/23 00:41:55;;;;;;;5.20;2.53;;;;;;;;;;5035767;28;20104;-81
2022/09/23 00:44:42;;;;;;;7.45;2.90;;;;;;;;;;5019122;28;20029;-80
2022/09/23 00:47:24;;;;;;;4.63;2.80;;;;;;;;;;5053113;28;20574;-80
2022/09/23 00:50:00;;;;;;;3.63;2.80;;;;;;;;;;5035549;28;20040;-80
2022/09/23 00:52:26;;;;;;;5.00;2.83;;;;;;;;;;5035568;28;20028;-80
2022/09/23 00:54:54;;;;;;;4.03;2.65;;;;;;;;;;5053304;28;20029;-80
2022/09/23 00:57:19;;;;;;;3.60;2.67;;;;;;;;;;5019081;28;20112;-80
2022/09/23 00:59:45;;;;;;;3.40;2.60;;;;;;;;;;5034955;28;20061;-80
2022/09/23 01:02:11;;;;;;;3.88;2.63;;;;;;;;;;5006836;28;20053;-80
2022/09/23 01:04:37;;;;;;;3.28;2.45;;;;;;;;;;5015225;28;20444;-80
2022/09/23 01:07:03;;;;;;;5.63;2.35;;;;;;;;;;5016152;28;20026;-80
2022/09/23 01:09:28;;;;;;;3.42;2.75;;;;;;;;;;5032942;28;20053;-80
2022/09/23 01:12:10;;;;;;;4.60;2.50;;;;;;;;;;5015468;28;20038;-79
2022/09/23 01:14:42;;;;;;;2.60;2.40;;;;;;;;;;5032946;28;20104;-79
2022/09/23 01:17:23;;;;;;;2.78;2.42;;;;;;;;;;4999134;28;20117;-80
2022/09/23 01:20:13;;;;;;;2.90;2.35;;;;;;;;;;5033056;28;20028;-80
2022/09/23 01:22:57;;;;;;;3.63;2.50;;;;;;;;;;5015515;28;20040;-80
2022/09/23 01:25:31;;;;;;;3.65;2.65;;;;;;;;;;5015287;28;20035;-79
2022/09/23 01:28:25;;;;;;;4.22;2.60;;;;;;;;;;5015241;28;20358;-79
2022/09/23 01:31:03;;;;;;;4.90;2.45;;;;;;;;;;5033333;28;20036;-79
2022/09/23 01:33:55;;;;;;;3.97;2.55;;;;;;;;;;4998823;28;20030;-79
2022/09/23 01:36:24;;;;;;;3.42;2.40;;;;;;;;;;5014933;28;20568;-79
2022/09/23 01:39:04;;;;;;;3.80;2.65;;;;;;;;;;5033593;28;20036;-79
2022/09/23 01:41:54;;;;;;;3.33;2.42;;;;;;;;;;5033100;28;20076;-79
2022/09/23 01:44:24;;;;;;;4.07;2.65;;;;;;;;;;5015306;28;20084;-79
2022/09/23 01:46:53;;;;;;;3.05;2.55;;;;;;;;;;4998538;28;20112;-79
2022/09/23 01:49:25;;;;;;;3.33;2.40;;;;;;;;;;5015199;28;20017;-79
2022/09/23 01:52:08;;;;;;;3.63;2.88;;;;;;;;;;5014846;28;20021;-80
2022/09/23 01:54:59;;;;;;;3.37;2.50;;;;;;;;;;5014924;28;20094;-79
2022/09/23 01:57:30;;;;;;;5.45;2.50;;;;;;;;;;5014807;28;20068;-78
2022/09/23 02:00:04;;;;;;;3.72;2.50;;;;;;;;;;4998511;28;20480;-79
2022/09/23 02:02:34;;;;;;;3.13;2.53;;;;;;;;;;5029882;28;20052;-79
2022/09/23 02:05:06;;;;;;;3.35;2.47;;;;;;;;;;5018090;28;20078;-79
2022/09/23 02:07:49;;;;;;;2.92;2.42;;;;;;;;;;5034907;28;20389;-79
2022/09/23 02:10:23;;;;;;;3.53;2.45;;;;;;;;;;5052387;28;20508;-79
2022/09/23 02:12:51;;;;;;;2.50;2.05;;;;;;;;;;5021887;28;20033;-79
2022/09/23 02:15:21;;;;;;;3.90;2.45;;;;;;;;;;5022077;28;20033;-79
2022/09/23 02:17:52;;;;;;;2.97;2.67;;;;;;;;;;5038665;28;20040;-79
2022/09/23 02:20:23;;;;;;;3.30;2.30;;;;;;;;;;5021615;28;20107;-80
2022/09/23 02:22:56;;;;;;;4.22;2.60;;;;;;;;;;5038272;28;20535;-79
2022/09/23 02:25:24;;;;;;;2.67;2.37;;;;;;;;;;5038077;28;20041;-80
2022/09/23 02:27:59;;;;;;;3.13;2.55;;;;;;;;;;5037915;28;20033;-80
2022/09/23 02:30:28;;;;;;;6.68;2.63;;;;;;;;;;5021400;28;20102;-80
2022/09/23 02:32:55;;;;;;;3.55;2.50;;;;;;;;;;5021277;28;20025;-80
2022/09/23 02:35:49;;;;;;;3.25;2.60;;;;;;;;;;5021333;28;20083;-79
2022/09/23 02:38:32;;;;;;;;;;;;;;;;;;5038157;28;20103;-79
2022/09/23 02:41:04;;;;;;;3.50;2.70;;;;;;;;;;5054453;28;19916;-79
2022/09/23 02:43:45;;;;;;;2.38;2.17;;;;;;;;;;5037618;28;20029;-79
2022/09/23 02:46:10;;;;;;;3.97;2.60;;;;;;;;;;5021284;28;20025;-79
2022/09/23 02:48:42;;;;;;;3.30;2.58;;;;;;;;;;5021410;28;20036;-79
2022/09/23 02:51:08;;;;;;;4.57;2.53;;;;;;;;;;5037831;28;20029;-79
2022/09/23 02:53:34;;;;;;;2.65;2.45;;;;;;;;;;5020882;28;20028;-78
2022/09/23 02:56:00;;;;;;;4.03;2.60;;;;;;;;;;5037776;28;20041;-79
2022/09/23 02:58:26;;;;;;;3.63;2.63;;;;;;;;;;5004534;28;20033;-79
2022/09/23 03:00:58;;;;;;;4.63;2.40;;;;;;;;;;5020859;28;20039;-79
2022/09/23 03:03:52;;;;;;;3.78;2.53;;;;;;;;;;5037719;28;20588;-79
2022/09/23 03:06:29;;;;;;;3.13;2.58;;;;;;;;;;5037369;28;20025;-79
2022/09/23 03:09:08;;;;;;;2.45;2.17;;;;;;;;;;5037503;28;20032;-79
2022/09/23 03:11:36;;;;;;;2.78;2.35;;;;;;;;;;5037516;28;20024;-79
2022/09/23 03:14:16;;;;;;;2.67;2.30;;;;;;;;;;5020795;28;20167;-79
2022/09/23 03:16:55;;;;;;;3.15;2.50;;;;;;;;;;5037776;28;20083;-79
2022/09/23 03:19:36;;;;;;;4.47;2.55;;;;;;;;;;5037045;28;20029;-79
2022/09/23 03:22:14;;;;;;;2.92;2.38;;;;;;;;;;5036373;28;20100;-79
2022/09/23 03:24:43;;;;;;;2.97;2.40;;;;;;;;;;5054429;28;20036;-80
2022/09/23 03:27:16;;;;;;;2.55;2.30;;;;;;;;;;5037069;28;20056;-80
2022/09/23 03:29:48;;;;;;;4.37;2.47;;;;;;;;;;5037327;28;20021;-80
2022/09/23 03:32:16;;;;;;;3.72;2.55;;;;;;;;;;5036852;28;20016;-79
2022/09/23 03:34:42;;;;;;;2.92;2.38;;;;;;;;;;5020187;28;20029;-80
2022/09/23 03:37:19;;;;;;;2.95;2.45;;;;;;;;;;5003481;28;20025;-79
2022/09/23 03:39:51;;;;;;;3.00;2.38;;;;;;;;;;5036867;28;20025;-80
2022/09/23 03:42:23;;;;;;;2.53;2.10;;;;;;;;;;5020090;28;20477;-79
2022/09/23 03:44:52;;;;;;;3.53;2.53;;;;;;;;;;5036650;28;20025;-79
2022/09/23 03:47:18;;;;;;;3.75;2.47;;;;;;;;;;5037118;28;20017;-79
2022/09/23 03:49:47;;;;;;;3.00;2.47;;;;;;;;;;5020245;28;20362;-79
2022/09/23 03:52:16;;;;;;;4.28;2.38;;;;;;;;;;5036781;28;20024;-81
2022/09/23 03:54:41;;;;;;;3.15;2.40;;;;;;;;;;5036101;28;20037;-80
2022/09/23 03:57:06;;;;;;;2.85;2.40;;;;;;;;;;5053955;28;20029;-80
2022/09/23 03:59:32;;;;;;;3.33;2.58;;;;;;;;;;5036557;28;20037;-80
2022/09/23 04:01:58;;;;;;;3.03;2.33;;;;;;;;;;5036109;28;20056;-81
2022/09/23 04:04:27;;;;;;;3.20;2.50;;;;;;;;;;5054399;28;20033;-80
2022/09/23 04:06:53;;;;;;;3.88;2.55;;;;;;;;;;5035941;28;20049;-81
2022/09/23 04:09:20;;;;;;;3.35;2.60;;;;;;;;;;5035863;28;20033;-80
2022/09/23 04:11:47;;;;;;;3.33;2.47;;;;;;;;;;5036416;28;20057;-81
2022/09/23 04:14:13;;;;;;;5.78;2.75;;;;;;;;;;5036053;28;20370;-80
2022/09/23 04:16:39;;;;;;;3.17;2.25;;;;;;;;;;5053839;28;20036;-80
2022/09/23 04:19:05;;;;;;;15.20;3.30;;;;;;;;;;5053876;28;20036;-81
2022/09/23 04:21:30;;;;;;;6.10;3.03;;;;;;;;;;5019271;28;20064;-82
2022/09/23 04:23:55;;;;;;;8.27;3.40;;;;;;;;;;5035932;28;20110;-81
2022/09/23 04:26:21;;;;;;;6.00;3.28;;;;;;;;;;5053813;28;20033;-82
2022/09/23 04:28:46;;;;;;;5.07;3.20;;;;;;;;;;5036099;28;20037;-81
2022/09/23 04:31:11;;;;;;;7.53;3.47;;;;;;;;;;5053599;28;20040;-83
2022/09/23 04:33:37;;;;;;;4.82;3.25;;;;;;;;;;5035909;28;20041;-80
2022/09/23 04:36:03;;;;;;;9.07;3.10;;;;;;;;;;5053547;28;20036;-81
2022/09/23 04:38:28;;;;;;;9.43;3.85;;;;;;;;;;5053676;28;20040;-79
2022/09/23 04:40:53;;;;;;;10.65;3.72;;;;;;;;;;5053950;28;20029;-81
2022/09/23 04:43:22;;;;;;;9.43;3.25;;;;;;;;;;5035763;28;20036;-80
2022/09/23 04:45:56;;;;;;;8.90;3.33;;;;;;;;;;5053774;28;20067;-80
2022/09/23 04:48:21;;;;;;;8.45;3.40;;;;;;;;;;5035936;28;20029;-82
2022/09/23 04:50:47;;;;;;;12.68;3.05;;;;;;;;;;5036141;28;20021;-82
2022/09/23 04:53:14;;;;;;;9.73;3.70;;;;;;;;;;5053660;28;20029;-81
2022/09/23 04:55:42;;;;;;;12.63;4.00;;;;;;;;;;5035594;28;20044;-81
2022/09/23 04:58:08;;;;;;;9.80;4.20;;;;;;;;;;5035798;28;20025;-78
2022/09/23 05:00:35;;;;;;;48.13;10.00;;;;;;;;;;5053785;28;20473;-79
2022/09/23 05:03:00;;;;;;;40.72;9.27;;;;;;;;;;5053223;28;20122;-80
2022/09/23 05:05:26;;;;;;;37.25;8.68;;;;;;;;;;5035938;28;20064;-80
2022/09/23 05:07:53;;;;;;;30.38;7.70;;;;;;;;;;5053417;28;20025;-80
2022/09/23 05:10:19;;;;;;;29.27;8.05;;;;;;;;;;5053245;28;20029;-79
2022/09/23 05:12:44;;;;;;;25.67;7.95;;;;;;;;;;5035294;28;20037;-77
2022/09/23 05:15:11;;;;;;;37.30;7.68;;;;;;;;;;5035198;28;20087;-80
2022/09/23 05:17:37;;;;;;;30.13;7.72;;;;;;;;;;5035597;28;20466;-80
2022/09/23 05:20:03;;;;;;;23.23;6.88;;;;;;;;;;5020038;28;20036;-78
2022/09/23 05:22:29;;;;;;;21.05;6.72;;;;;;;;;;5035816;28;20040;-79
2022/09/23 05:24:54;;;;;;;31.73;6.78;;;;;;;;;;5063254;28;20029;-78
2022/09/23 05:27:20;;;;;;;24.08;6.50;;;;;;;;;;5036457;28;20108;-77
2022/09/23 05:29:46;;;;;;;21.70;6.50;;;;;;;;;;5019019;28;20025;-77
2022/09/23 05:32:12;;;;;;;19.60;7.00;;;;;;;;;;5018717;28;20037;-79
2022/09/23 05:34:37;;;;;;;16.42;5.85;;;;;;;;;;5035079;28;20032;-79
2022/09/23 05:37:04;;;;;;;16.92;5.53;;;;;;;;;;5052995;28;20115;-79
2022/09/23 05:39:29;;;;;;;20.92;5.75;;;;;;;;;;5053215;28;20477;-79
2022/09/23 05:41:54;;;;;;;17.88;5.70;;;;;;;;;;5036091;28;20039;-79
2022/09/23 05:44:21;;;;;;;13.18;5.40;;;;;;;;;;5035320;28;20053;-79
2022/09/23 05:46:46;;;;;;;13.77;5.32;;;;;;;;;;5037088;28;20474;-79
2022/09/23 05:49:12;;;;;;;22.48;5.47;;;;;;;;;;5039527;28;20104;-79
2022/09/23 05:51:37;;;;;;;12.48;5.18;;;;;;;;;;5022398;28;20393;-79
2022/09/23 05:54:03;;;;;;;11.98;4.93;;;;;;;;;;5039503;28;20032;-79
2022/09/23 05:56:29;;;;;;;10.95;4.43;;;;;;;;;;5038715;28;20041;-79
2022/09/23 05:58:56;;;;;;;16.02;4.85;;;;;;;;;;5038582;28;20078;-79
2022/09/23 06:01:24;;;;;;;12.15;4.93;;;;;;;;;;5056287;28;20037;-79
2022/09/23 06:03:56;;;;;;;9.20;4.63;;;;;;;;;;5022342;28;20041;-78
2022/09/23 06:06:27;;;;;;;8.35;4.40;;;;;;;;;;5022581;28;20040;-78
2022/09/23 06:08:53;;;;;;;12.40;4.40;;;;;;;;;;5056383;28;20032;-78
2022/09/23 06:11:20;;;;;;;8.07;4.57;;;;;;;;;;5038695;28;20033;-78
2022/09/23 06:13:46;;;;;;;15.20;4.55;;;;;;;;;;5038554;28;20409;-77
2022/09/23 06:16:13;;;;;;;12.02;3.78;;;;;;;;;;5038983;28;20029;-77
2022/09/23 06:18:43;;;;;;;9.10;4.10;;;;;;;;;;5022371;28;20021;-78
2022/09/23 06:21:13;;;;;;;10.38;4.13;;;;;;;;;;5038600;28;20028;-77
2022/09/23 06:23:39;;;;;;;8.13;3.95;;;;;;;;;;5022032;28;20083;-79
2022/09/23 06:26:06;;;;;;;8.23;4.22;;;;;;;;;;5036272;28;20424;-81
2022/09/23 06:28:34;;;;;;;7.15;3.90;;;;;;;;;;5037580;28;20037;-80
2022/09/23 06:31:00;;;;;;;7.05;3.90;;;;;;;;;;5021010;28;20063;-77
2022/09/23 06:33:26;;;;;;;13.38;3.80;;;;;;;;;;5021186;28;20413;-80
2022/09/23 06:36:03;;;;;;;12.02;4.00;;;;;;;;;;5037483;28;20029;-80
2022/09/23 06:38:29;;;;;;;5.72;4.03;;;;;;;;;;5055203;28;20029;-80
2022/09/23 06:40:55;;;;;;;5.05;3.35;;;;;;;;;;5020495;28;20039;-80
2022/09/23 06:43:22;;;;;;;5.78;3.47;;;;;;;;;;5037538;28;20021;-79
2022/09/23 06:45:54;;;;;;;5.28;3.40;;;;;;;;;;5037177;28;20084;-79
2022/09/23 06:48:21;;;;;;;6.78;3.72;;;;;;;;;;5021155;28;20029;-80
2022/09/23 06:50:48;;;;;;;6.72;3.55;;;;;;;;;;5037258;28;20023;-79
2022/09/23 06:53:14;;;;;;;8.32;3.33;;;;;;;;;;5037355;28;20021;-80
2022/09/23 06:55:40;;;;;;;8.68;3.80;;;;;;;;;;5036919;28;20036;-79
2022/09/23 06:58:06;;;;;;;4.93;3.40;;;;;;;;;;5019044;28;20037;-77
2022/09/23 07:00:31;;;;;;;6.55;3.40;;;;;;;;;;5037011;28;20033;-77
2022/09/23 07:02:57;;;;;;;6.50;3.50;;;;;;;;;;5036855;28;20053;-77
2022/09/23 07:05:22;;;;;;;5.88;3.00;;;;;;;;;;5020263;28;20040;-78
2022/09/23 07:07:48;;;;;;;7.15;3.58;;;;;;;;;;5020221;28;20029;-78
2022/09/23 07:10:13;;;;;;;7.18;3.30;;;;;;;;;;5020170;28;20041;-78
2022/09/23 07:12:39;;;;;;;13.00;3.53;;;;;;;;;;5020209;28;20029;-79
2022/09/23 07:15:05;;;;;;;7.10;3.53;;;;;;;;;;5036757;28;20025;-79
2022/09/23 07:17:30;;;;;;;5.55;3.50;;;;;;;;;;5019904;28;20032;-80
2022/09/23 07:19:56;;;;;;;4.47;3.20;;;;;;;;;;5036692;28;20036;-79
2022/09/23 07:22:23;;;;;;;4.25;3.03;;;;;;;;;;5036675;28;20032;-79
2022/09/23 07:24:49;;;;;;;8.82;3.80;;;;;;;;;;5054360;28;21706;-77
2022/09/23 07:27:18;;;;;;;5.68;3.40;;;;;;;;;;5020005;28;20091;-80
2022/09/23 07:29:48;;;;;;;5.63;3.15;;;;;;;;;;5037208;28;20079;-79
2022/09/23 07:32:13;;;;;;;5.40;2.90;;;;;;;;;;5036504;28;20106;-79
2022/09/23 07:34:38;;;;;;;6.72;3.45;;;;;;;;;;5036232;28;20428;-79
2022/09/23 07:37:04;;;;;;;9.60;3.47;;;;;;;;;;5054316;28;20028;-79
2022/09/23 07:39:29;;;;;;;6.82;3.42;;;;;;;;;;5036799;28;20033;-79
2022/09/23 07:41:55;;;;;;;7.45;3.65;;;;;;;;;;5020322;28;20029;-79
2022/09/23 07:44:20;;;;;;;5.43;3.40;;;;;;;;;;5036652;28;20401;-78
2022/09/23 07:46:47;;;;;;;8.85;4.10;;;;;;;;;;5036740;28;20029;-78
2022/09/23 07:49:12;;;;;;;7.32;3.72;;;;;;;;;;5054463;28;20485;-78
2022/09/23 07:51:39;;;;;;;7.00;3.65;;;;;;;;;;5020287;28;20032;-78
2022/09/23 07:54:07;;;;;;;7.53;3.30;;;;;;;;;;5028531;28;20026;-79
2022/09/23 07:56:34;;;;;;;10.90;3.90;;;;;;;;;;5033859;28;20032;-79
2022/09/23 07:59:00;;;;;;;8.25;3.85;;;;;;;;;;5039158;28;20040;-79
2022/09/23 08:01:37;;;;;;;10.30;3.75;;;;;;;;;;5033364;28;20052;-79
2022/09/23 08:04:06;;;;;;;8.23;3.92;;;;;;;;;;5024234;28;20453;-77
2022/09/23 08:06:32;;;;;;;6.78;3.70;;;;;;;;;;5033283;28;20028;-77
2022/09/23 08:08:58;;;;;;;10.30;3.70;;;;;;;;;;5033149;28;20099;-79
2022/09/23 08:11:25;;;;;;;6.22;3.75;;;;;;;;;;5033552;28;20029;-78
2022/09/23 08:13:51;;;;;;;6.97;3.70;;;;;;;;;;5032401;28;20041;-79
2022/09/23 08:16:16;;;;;;;9.90;3.92;;;;;;;;;;5032736;28;20397;-79
2022/09/23 08:18:45;;;;;;;8.82;3.40;;;;;;;;;;5032890;28;20107;-79
2022/09/23 08:21:11;;;;;;;7.18;3.45;;;;;;;;;;5033445;28;20122;-79
2022/09/23 08:23:36;;;;;;;6.93;3.70;;;;;;;;;;5032540;28;20034;-78
2022/09/23 08:26:04;;;;;;;8.35;3.60;;;;;;;;;;5050989;28;20033;-78
2022/09/23 08:28:32;;;;;;;6.97;3.42;;;;;;;;;;5033091;28;20056;-77
2022/09/23 08:30:58;;;;;;;5.43;3.58;;;;;;;;;;5033184;28;20033;-77
2022/09/23 08:33:23;;;;;;;6.68;3.65;;;;;;;;;;5032983;28;20400;-78
2022/09/23 08:35:49;;;;;;;7.40;3.58;;;;;;;;;;5016321;28;20036;-78
2022/09/23 08:38:15;;;;;;;9.85;3.72;;;;;;;;;;5050310;28;20036;-77
2022/09/23 08:40:43;;;;;;;10.20;3.83;;;;;;;;;;5014067;28;20043;-78
2022/09/23 08:43:18;;;;;;;5.95;3.38;;;;;;;;;;5036011;28;20500;-78
2022/09/23 08:45:43;;;;;;;5.15;3.60;;;;;;;;;;5031907;28;20433;-78
2022/09/23 08:48:14;;;;;;;6.72;3.58;;;;;;;;;;5050608;28;20095;-78
2022/09/23 08:50:49;;;;;;;9.45;3.50;;;;;;;;;;5032559;28;20039;-77
2022/09/23 08:53:26;;;;;;;8.30;3.60;;;;;;;;;;5032295;28;20022;-77
2022/09/23 08:55:54;;;;;;;7.90;3.67;;;;;;;;;;5037465;28;20025;-77
2022/09/23 08:58:39;;;;;;;6.03;3.30;;;;;;;;;;5030820;28;20115;-77
2022/09/23 09:01:22;;;;;;;5.80;3.38;;;;;;;;;;5050149;28;20053;-77
2022/09/23 09:03:49;;;;;;;5.40;3.40;;;;;;;;;;5032727;28;20025;-77
2022/09/23 09:06:56;;;;;;;5.03;3.30;;;;;;;;;;5032608;28;20044;-77
2022/09/23 09:09:24;;;;;;;5.68;3.30;;;;;;;;;;4980760;28;20169;-77
2022/09/23 09:11:53;;;;;;;4.43;3.17;;;;;;;;;;4970897;28;20136;-77
2022/09/23 09:14:32;;;;;;;8.18;3.20;;;;;;;;;;4941519;28;20030;-78
2022/09/23 09:17:06;;;;;;;6.57;3.58;;;;;;;;;;4969274;28;20038;-78
2022/09/23 09:19:52;;;;;;;5.53;3.15;;;;;;;;;;4988551;28;20035;-77
2022/09/23 09:22:29;;;;;;;6.18;3.17;;;;;;;;;;4970976;28;20034;-76
2022/09/23 09:24:59;;;;;;;8.77;3.50;;;;;;;;;;4946585;28;20047;-77
2022/09/23 09:27:24;;;;;;;5.15;2.83;;;;;;;;;;4961883;28;20403;-77
2022/09/23 09:29:53;;;;;;;9.85;3.35;;;;;;;;;;4961527;28;20525;-77
2022/09/23 09:32:47;;;;;;;7.35;3.15;;;;;;;;;;4948588;28;20082;-77
2022/09/23 09:35:23;;;;;;;6.00;3.22;;;;;;;;;;4983443;28;20122;-77
2022/09/23 09:37:48;;;;;;;10.75;3.17;;;;;;;;;;4982320;28;20061;-78
2022/09/23 09:40:19;;;;;;;14.00;3.08;;;;;;;;;;4965099;28;20066;-77
2022/09/23 09:42:47;;;;;;;11.32;2.92;;;;;;;;;;4972299;28;20037;-77
2022/09/23 09:45:25;;;;;;;8.93;3.30;;;;;;;;;;5020379;28;20115;-77
2022/09/23 09:48:16;;;;;;;6.65;3.08;;;;;;;;;;5036516;28;20435;-76
2022/09/23 09:50:50;;;;;;;7.65;3.50;;;;;;;;;;5036215;28;20111;-76
2022/09/23 09:53:20;;;;;;;11.13;3.08;;;;;;;;;;5041777;28;20079;-76
2022/09/23 09:55:59;;;;;;;8.70;2.72;;;;;;;;;;5055061;28;20111;-76
2022/09/23 09:58:27;;;;;;;15.52;3.05;;;;;;;;;;5034433;28;20025;-77
2022/09/23 10:00:52;;;;;;;15.90;3.25;;;;;;;;;;5053830;28;20400;-77
2022/09/23 10:03:36;;;;;;;10.70;3.45;;;;;;;;;;5054263;28;20041;-76
2022/09/23 10:06:16;;;;;;;10.73;3.08;;;;;;;;;;5036071;28;20431;-76
2022/09/23 10:08:46;;;;;;;8.27;3.33;;;;;;;;;;5053519;28;20037;-77
2022/09/23 10:11:16;;;;;;;9.20;2.95;;;;;;;;;;5035777;28;20075;-76
2022/09/23 10:14:19;;;;;;;5.78;2.97;;;;;;;;;;5053534;28;20040;-76
2022/09/23 10:16:47;;;;;;;10.68;2.70;;;;;;;;;;5035198;28;20628;-76
2022/09/23 10:19:26;;;;;;;9.50;3.08;;;;;;;;;;5035281;28;20028;-76
2022/09/23 10:21:58;;;;;;;7.55;3.08;;;;;;;;;;5017356;28;20029;-76
2022/09/23 10:24:26;;;;;;;7.65;3.20;;;;;;;;;;5035701;28;20523;-76
2022/09/23 10:27:01;;;;;;;8.00;3.40;;;;;;;;;;5027499;28;20536;-77
2022/09/23 10:29:37;;;;;;;7.30;2.88;;;;;;;;;;5034872;28;20032;-76
2022/09/23 10:32:32;;;;;;;9.73;3.50;;;;;;;;;;5034899;28;20055;-77
2022/09/23 10:35:13;;;;;;;6.93;2.67;;;;;;;;;;5051783;28;20021;-76
2022/09/23 10:37:56;;;;;;;13.70;3.33;;;;;;;;;;5053126;28;20051;-77
2022/09/23 10:46:45;;;;;;;4.78;3.00;;;;;;;;;;5054948;28;20528;-75
2022/09/23 10:49:22;;;;;;;6.10;3.50;;;;;;;;;;5039950;28;20029;-76
2022/09/23 10:52:04;;;;;;;9.95;3.50;;;;;;;;;;5053954;28;20053;-77
2022/09/23 10:54:38;;;;;;;7.60;3.15;;;;;;;;;;5034585;28;20025;-78
2022/09/23 10:57:40;;;;;;;9.45;3.17;;;;;;;;;;5036337;28;20039;-77
2022/09/23 11:00:36;;;;;;;9.52;3.00;;;;;;;;;;5019529;28;20385;-76
2022/09/23 11:03:26;;;;;;;9.02;3.13;;;;;;;;;;5000164;28;20054;-77
2022/09/23 11:06:19;;;;;;;7.50;3.13;;;;;;;;;;5016330;28;20057;-76
2022/09/23 11:09:19;;;;;;;10.75;3.15;;;;;;;;;;4998660;28;20108;-77
2022/09/23 11:11:54;;;;;;;8.27;4.28;;;;;;;;;;4999342;28;20053;-76
2022/09/23 11:14:59;;;;;;;16.15;6.63;;;;;;;;;;5016573;28;20034;-76
2022/09/23 11:17:36;;;;;;;19.92;6.97;;;;;;;;;;4939058;29;20089;-77
2022/09/23 11:20:20;;;;;;;15.23;6.55;;;;;;;;;;5010270;28;20033;-77
2022/09/23 11:22:58;;;;;;;15.02;8.50;;;;;;;;;;4998307;28;20068;-77
2022/09/23 11:25:26;;;;;;;20.67;9.73;;;;;;;;;;5014962;28;20398;-76
2022/09/23 11:28:16;;;;;;;18.38;8.88;;;;;;;;;;5016329;28;20018;-77
2022/09/23 11:31:08;;;;;;;18.58;9.13;;;;;;;;;;5004017;28;20080;-76
2022/09/23 11:33:45;;;;;;;21.02;9.60;;;;;;;;;;5015469;28;20029;-77
2022/09/23 11:36:25;;;;;;;27.17;10.07;;;;;;;;;;5016528;28;20029;-76
2022/09/23 11:38:51;;;;;;;17.83;9.15;;;;;;;;;;5000157;28;20036;-77
2022/09/23 11:41:20;;;;;;;23.95;9.75;;;;;;;;;;5017250;28;20567;-78
2022/09/23 11:43:51;;;;;;;21.17;9.32;;;;;;;;;;4999646;28;20437;-77
2022/09/23 11:46:33;;;;;;;25.00;9.38;;;;;;;;;;5016647;28;20032;-77
2022/09/23 11:49:28;;;;;;;21.92;9.48;;;;;;;;;;5033788;28;20398;-77
2022/09/23 11:52:19;;;;;;;14.73;8.27;;;;;;;;;;5033124;28;20083;-77
2022/09/23 11:54:51;;;;;;;16.17;9.25;;;;;;;;;;5016659;28;20021;-77
2022/09/23 11:57:38;;;;;;;20.27;8.75;;;;;;;;;;5016562;28;20501;-77
2022/09/23 12:00:06;;;;;;;18.17;8.27;;;;;;;;;;5035195;28;20112;-76
2022/09/23 12:02:55;;;;;;;22.92;7.90;;;;;;;;;;5030695;28;20513;-76
2022/09/23 12:05:23;;;;;;;24.00;8.85;;;;;;;;;;5035934;28;20033;-77
2022/09/23 12:08:06;;;;;;;18.33;9.05;;;;;;;;;;5038028;28;20071;-77
2022/09/23 12:10:47;;;;;;;13.05;7.50;;;;;;;;;;5035896;28;20473;-77
2022/09/23 12:13:23;;;;;;;15.88;6.93;;;;;;;;;;5036182;28;20021;-77
2022/09/23 12:16:12;;;;;;;21.42;7.45;;;;;;;;;;5036370;28;20362;-77
2022/09/23 12:18:51;;;;;;;12.30;6.85;;;;;;;;;;5035699;28;20025;-76
2022/09/23 12:21:32;;;;;;;19.50;7.18;;;;;;;;;;5036002;28;20032;-76
2022/09/23 12:24:12;;;;;;;11.60;6.53;;;;;;;;;;5019224;28;20048;-76
2022/09/23 12:26:38;;;;;;;14.90;6.18;;;;;;;;;;5035823;28;20036;-76
2022/09/23 12:29:05;;;;;;;11.88;6.45;;;;;;;;;;5035594;28;20444;-76
2022/09/23 12:31:35;;;;;;;16.50;7.20;;;;;;;;;;5035988;28;20055;-77
2022/09/23 12:34:02;;;;;;;11.57;5.90;;;;;;;;;;5019171;28;20119;-76
2022/09/23 12:36:33;;;;;;;20.38;6.00;;;;;;;;;;5018794;28;20031;-77
2022/09/23 12:38:58;;;;;;;13.23;5.82;;;;;;;;;;5036547;28;20166;-77
2022/09/23 12:41:40;;;;;;;17.20;6.25;;;;;;;;;;5030910;28;20051;-77
2022/09/23 12:44:14;;;;;;;10.65;5.28;;;;;;;;;;5032674;28;20028;-77
2022/09/23 12:46:44;;;;;;;11.75;5.20;;;;;;;;;;5049812;28;20065;-76
2022/09/23 12:49:28;;;;;;;13.13;6.00;;;;;;;;;;5031924;28;20029;-77
2022/09/23 12:52:14;;;;;;;9.90;5.00;;;;;;;;;;5031909;28;20584;-77
2022/09/23 12:54:41;;;;;;;7.55;4.85;;;;;;;;;;5049621;28;20024;-78
2022/09/23 12:57:27;;;;;;;10.07;5.40;;;;;;;;;;5031340;28;20484;-77
2022/09/23 13:00:21;;;;;;;13.63;5.20;;;;;;;;;;5029628;28;20078;-76
2022/09/23 13:02:46;;;;;;;11.65;4.57;;;;;;;;;;5015552;28;20064;-76
2022/09/23 13:08:18;;;;;;;17.17;5.28;;;;;;;;;;5037514;28;20040;-77
2022/09/23 13:10:51;;;;;;;9.80;4.90;;;;;;;;;;5016493;28;20028;-77
2022/09/23 13:13:24;;;;;;;11.10;4.50;;;;;;;;;;5034657;28;20389;-77
2022/09/23 13:15:51;;;;;;;12.05;4.57;;;;;;;;;;5034521;28;20100;-76
2022/09/23 13:18:19;;;;;;;9.43;4.43;;;;;;;;;;5033299;28;20033;-76
2022/09/23 13:20:47;;;;;;;8.30;4.55;;;;;;;;;;5052146;28;20385;-76
2022/09/23 13:23:30;;;;;;;14.68;5.47;;;;;;;;;;5033424;28;20151;-76
2022/09/23 13:25:57;;;;;;;11.27;4.75;;;;;;;;;;5017278;28;20029;-77
2022/09/23 13:28:30;;;;;;;8.10;5.13;;;;;;;;;;5051650;28;20427;-76
2022/09/23 13:30:57;;;;;;;14.80;4.90;;;;;;;;;;5033521;28;20024;-77
2022/09/23 13:33:33;;;;;;;12.48;5.10;;;;;;;;;;5034586;28;20040;-77
2022/09/23 13:36:01;;;;;;;12.77;4.95;;;;;;;;;;5034325;28;20427;-78
2022/09/23 13:38:29;;;;;;;7.85;4.40;;;;;;;;;;5034246;28;20021;-76
2022/09/23 13:41:12;;;;;;;8.52;4.72;;;;;;;;;;5034584;28;20032;-77
2022/09/23 13:43:47;;;;;;;16.13;5.28;;;;;;;;;;5034871;28;20029;-77
2022/09/23 13:46:17;;;;;;;18.65;4.50;;;;;;;;;;5018183;28;20029;-77
2022/09/23 13:48:44;;;;;;;12.60;4.20;;;;;;;;;;5034514;28;20386;-77
2022/09/23 13:51:13;;;;;;;9.73;3.75;;;;;;;;;;5034145;28;20152;-79
2022/09/23 13:53:39;;;;;;;10.23;3.83;;;;;;;;;;5034261;28;20117;-78
2022/09/23 13:56:12;;;;;;;10.45;3.38;;;;;;;;;;5017739;28;20119;-77
2022/09/23 13:58:38;;;;;;;5.90;3.47;;;;;;;;;;5051567;28;20182;-77
2022/09/23 14:01:07;;;;;;;7.72;3.00;;;;;;;;;;5034929;28;20545;-77
2022/09/23 14:03:37;;;;;;;9.13;3.22;;;;;;;;;;5051889;28;20541;-77
2022/09/23 14:06:07;;;;;;;4.95;3.08;;;;;;;;;;5034323;28;20021;-77
2022/09/23 14:08:32;;;;;;;6.57;2.90;;;;;;;;;;5037116;28;20386;-76
2022/09/23 14:10:58;;;;;;;9.95;3.03;;;;;;;;;;5020810;28;20032;-77
2022/09/23 14:13:30;;;;;;;4.55;2.72;;;;;;;;;;5037924;28;20029;-77
2022/09/23 14:15:58;;;;;;;3.85;2.47;;;;;;;;;;5020667;28;20029;-77
2022/09/23 14:18:33;;;;;;;8.57;2.80;;;;;;;;;;5037145;28;20021;-78
2022/09/23 14:20:59;;;;;;;12.23;2.85;;;;;;;;;;5037853;28;20021;-80
2022/09/23 14:23:24;;;;;;;12.13;2.63;;;;;;;;;;5037245;28;20186;-78
2022/09/23 14:25:51;;;;;;;5.30;2.60;;;;;;;;;;5054362;28;20091;-77
2022/09/23 14:28:21;;;;;;;6.93;2.67;;;;;;;;;;5037205;28;20056;-79
2022/09/23 14:30:49;;;;;;;6.95;2.55;;;;;;;;;;5037212;28;20030;-80
2022/09/23 14:33:31;;;;;;;7.53;2.83;;;;;;;;;;5036615;28;20025;-79
2022/09/23 14:39:11;;;;;;;4.30;2.55;;;;;;;;;;5055582;28;20043;-79
2022/09/23 14:41:43;;;;;;;5.50;2.60;;;;;;;;;;5037552;28;20171;-80
2022/09/23 14:44:21;;;;;;;5.15;2.45;;;;;;;;;;5021039;28;20028;-78
2022/09/23 14:47:05;;;;;;;3.50;2.22;;;;;;;;;;5038253;28;20045;-80
2022/09/23 14:49:31;;;;;;;5.13;2.40;;;;;;;;;;5055636;28;20037;-78
2022/09/23 14:51:59;;;;;;;4.20;2.03;;;;;;;;;;5021033;28;20025;-80
2022/09/23 14:54:44;;;;;;;4.72;2.33;;;;;;;;;;5039675;28;20029;-79
2022/09/23 14:57:22;;;;;;;8.90;2.47;;;;;;;;;;5037861;28;20063;-79
2022/09/23 15:00:08;;;;;;;5.57;2.63;;;;;;;;;;5055571;28;20021;-79
2022/09/23 15:02:39;;;;;;;3.65;2.17;;;;;;;;;;5038972;28;20049;-79
2022/09/23 15:05:07;;;;;;;5.63;2.13;;;;;;;;;;5019687;28;20076;-78
2022/09/23 15:07:35;;;;;;;5.15;2.13;;;;;;;;;;5053817;28;20024;-78
2022/09/23 15:10:03;;;;;;;4.32;2.10;;;;;;;;;;5035867;28;20031;-79
2022/09/23 15:12:28;;;;;;;3.40;2.10;;;;;;;;;;5020831;28;20389;-79
2022/09/23 15:14:55;;;;;;;3.47;2.05;;;;;;;;;;5053498;28;20029;-78
2022/09/23 15:17:33;;;;;;;3.35;1.85;;;;;;;;;;5036555;28;20069;-78